createdAt,value
2022-12-24T00:00:07.767Z,73.94
2022-12-24T00:02:34.918Z,73.91
2022-12-24T00:05:01.811Z,73.92
2022-12-24T00:07:28.650Z,74.80
2022-12-24T00:09:55.164Z,74.43
2022-12-24T00:12:22.183Z,74.49
2022-12-24T00:14:48.721Z,74.77
2022-12-24T00:17:15.363Z,74.72
2022-12-24T00:19:43.327Z,74.55
2022-12-24T00:22:15.864Z,75.02
2022-12-24T00:24:42.411Z,74.75
2022-12-24T00:27:11.903Z,74.75
2022-12-24T00:29:38.412Z,74.57
2022-12-24T00:32:08.214Z,74.25
2022-12-24T00:34:36.141Z,73.90
2022-12-24T00:37:06.123Z,73.65
2022-12-24T00:39:33.095Z,73.24
2022-12-24T00:41:59.621Z,73.04
2022-12-24T00:44:26.459Z,73.00
2022-12-24T00:46:53.018Z,73.26
2022-12-24T00:49:19.566Z,73.35
2022-12-24T00:51:46.404Z,73.93
2022-12-24T00:54:13.192Z,74.46
2022-12-24T00:56:39.725Z,74.19
2022-12-24T00:59:06.254Z,74.03
2022-12-24T01:01:32.837Z,74.54
2022-12-24T01:04:18.050Z,74.18
2022-12-24T01:06:44.598Z,73.91
2022-12-24T01:09:11.360Z,74.00
2022-12-24T01:11:37.902Z,73.84
2022-12-24T01:14:04.418Z,74.58
2022-12-24T01:16:31.010Z,74.05
2022-12-24T01:18:57.595Z,74.33
2022-12-24T01:21:24.156Z,74.61
2022-12-24T01:23:50.647Z,74.77
2022-12-24T01:26:17.178Z,74.61
2022-12-24T01:28:43.697Z,75.38
2022-12-24T01:31:11.159Z,76.86
2022-12-24T01:33:37.728Z,76.92
2022-12-24T01:36:04.334Z,77.23
2022-12-24T01:38:30.894Z,78.23
2022-12-24T01:41:16.348Z,79.06
2022-12-24T01:43:43.016Z,79.92
2022-12-24T01:46:14.900Z,80.37
2022-12-24T01:48:43.001Z,80.11
2022-12-24T01:51:29.726Z,80.38
2022-12-24T01:53:58.025Z,79.84
2022-12-24T01:56:24.663Z,80.44
2022-12-24T01:58:52.240Z,80.43
2022-12-24T02:01:18.821Z,80.14
2022-12-24T02:03:45.510Z,79.79
2022-12-24T02:06:12.471Z,79.89
2022-12-24T02:08:42.103Z,79.67
2022-12-24T02:11:15.930Z,79.93
2022-12-24T02:13:43.022Z,80.33
2022-12-24T02:16:15.667Z,79.91
2022-12-24T02:19:11.771Z,79.78
2022-12-24T02:21:48.640Z,80.30
2022-12-24T02:24:21.886Z,79.84
2022-12-24T02:26:57.636Z,79.47
2022-12-24T02:29:33.049Z,79.76
2022-12-24T02:32:03.911Z,79.61
2022-12-24T02:34:36.696Z,80.31
2022-12-24T02:37:11.464Z,80.07
2022-12-24T02:39:48.684Z,79.79
2022-12-24T02:42:16.030Z,79.32
2022-12-24T02:44:50.247Z,79.22
2022-12-24T02:47:17.184Z,78.99
2022-12-24T02:49:44.580Z,79.55
2022-12-24T02:52:29.818Z,79.01
2022-12-24T02:54:56.773Z,78.87
2022-12-24T02:57:27.977Z,78.88
2022-12-24T02:59:59.553Z,78.76
2022-12-24T03:02:28.989Z,78.78
2022-12-24T03:04:55.598Z,78.19
2022-12-24T03:07:25.251Z,78.65
2022-12-24T03:10:06.816Z,78.20
2022-12-24T03:12:36.147Z,78.36
2022-12-24T03:15:03.016Z,78.08
2022-12-24T03:17:31.991Z,77.60
2022-12-24T03:19:58.503Z,77.73
2022-12-24T03:22:25.075Z,77.32
2022-12-24T03:24:51.636Z,78.06
2022-12-24T03:27:18.159Z,78.05
2022-12-24T03:29:44.982Z,77.94
2022-12-24T03:32:11.502Z,78.11
2022-12-24T03:34:38.050Z,77.95
2022-12-24T03:37:04.665Z,77.56
2022-12-24T03:39:31.176Z,78.07
2022-12-24T03:41:57.681Z,78.34
2022-12-24T03:44:24.181Z,78.48
2022-12-24T03:46:50.687Z,78.44
2022-12-24T03:49:17.201Z,78.54
2022-12-24T03:51:43.805Z,78.73
2022-12-24T03:54:10.345Z,78.81
2022-12-24T03:56:36.844Z,78.88
2022-12-24T03:59:03.430Z,79.12
2022-12-24T04:01:30.645Z,79.40
2022-12-24T04:03:57.263Z,79.32
2022-12-24T04:06:23.778Z,79.63
2022-12-24T04:08:50.338Z,79.07
2022-12-24T04:11:17.079Z,79.46
2022-12-24T04:13:43.625Z,79.36
2022-12-24T04:16:14.358Z,79.49
2022-12-24T04:18:41.187Z,79.28
2022-12-24T04:21:08.106Z,79.15
2022-12-24T04:23:35.168Z,78.72
2022-12-24T04:26:02.225Z,79.02
2022-12-24T04:28:29.188Z,79.06
2022-12-24T04:31:02.365Z,79.23
2022-12-24T04:33:28.897Z,79.81
2022-12-24T04:35:57.524Z,79.88
2022-12-24T04:38:24.198Z,80.16
2022-12-24T04:40:57.931Z,79.93
2022-12-24T04:43:24.458Z,79.65
2022-12-24T04:45:51.046Z,79.90
2022-12-24T04:48:17.584Z,79.79
2022-12-24T04:50:44.079Z,79.99
2022-12-24T04:53:10.624Z,80.18
2022-12-24T04:55:37.138Z,79.61
2022-12-24T04:58:03.671Z,79.21
2022-12-24T05:00:30.220Z,79.34
2022-12-24T05:02:56.780Z,79.45
2022-12-24T05:05:23.394Z,79.58
2022-12-24T05:07:49.961Z,80.01
2022-12-24T05:10:16.481Z,79.35
2022-12-24T05:12:43.048Z,79.25
2022-12-24T05:15:09.700Z,79.66
2022-12-24T05:17:36.265Z,80.41
2022-12-24T05:20:02.925Z,80.06
2022-12-24T05:22:47.951Z,79.68
2022-12-24T05:25:33.276Z,79.93
2022-12-24T05:27:59.794Z,79.96
2022-12-24T05:30:26.470Z,79.60
2022-12-24T05:32:53.030Z,79.45
2022-12-24T05:35:19.574Z,79.25
2022-12-24T05:37:46.100Z,79.01
2022-12-24T05:40:12.621Z,79.25
2022-12-24T05:42:39.138Z,79.34
2022-12-24T05:45:05.851Z,79.37
2022-12-24T05:47:34.704Z,79.48
2022-12-24T05:50:03.668Z,79.09
2022-12-24T05:52:30.189Z,78.95
2022-12-24T05:54:56.718Z,78.79
2022-12-24T05:57:23.226Z,78.91
2022-12-24T05:59:49.966Z,78.87
2022-12-24T06:02:16.604Z,78.82
2022-12-24T06:04:43.180Z,78.88
2022-12-24T06:07:09.712Z,79.27
2022-12-24T06:09:36.207Z,79.25
2022-12-24T06:12:02.733Z,79.35
2022-12-24T06:14:29.244Z,79.41
2022-12-24T06:16:55.866Z,79.43
2022-12-24T06:19:22.383Z,79.24
2022-12-24T06:21:48.909Z,78.99
2022-12-24T06:24:16.031Z,79.57
2022-12-24T06:26:42.626Z,79.33
2022-12-24T06:29:09.400Z,79.49
2022-12-24T06:31:35.975Z,79.46
2022-12-24T06:34:02.496Z,79.54
2022-12-24T06:36:29.006Z,80.00
2022-12-24T06:38:55.614Z,79.75
2022-12-24T06:41:22.475Z,79.53
2022-12-24T06:43:50.344Z,79.67
2022-12-24T06:46:17.314Z,79.38
2022-12-24T06:48:44.846Z,79.26
2022-12-24T06:51:11.658Z,79.49
2022-12-24T06:53:38.157Z,79.32
2022-12-24T06:56:05.276Z,79.40
2022-12-24T06:58:31.796Z,79.32
2022-12-24T07:00:58.279Z,79.69
2022-12-24T07:03:24.896Z,79.46
2022-12-24T07:05:51.496Z,79.39
2022-12-24T07:08:18.050Z,79.62
2022-12-24T07:10:50.572Z,79.66
2022-12-24T07:13:20.519Z,80.31
2022-12-24T07:15:47.080Z,80.15
2022-12-24T07:18:13.644Z,79.95
2022-12-24T07:20:40.162Z,79.80
2022-12-24T07:23:06.662Z,79.89
2022-12-24T07:25:33.170Z,79.99
2022-12-24T07:27:59.707Z,80.12
2022-12-24T07:30:26.246Z,80.20
2022-12-24T07:32:52.859Z,80.23
2022-12-24T07:35:19.390Z,79.72
2022-12-24T07:37:45.937Z,79.75
2022-12-24T07:40:12.547Z,79.17
2022-12-24T07:42:39.134Z,79.07
2022-12-24T07:45:05.907Z,79.04
2022-12-24T07:47:32.487Z,78.69
2022-12-24T07:49:58.999Z,78.81
2022-12-24T07:52:25.519Z,78.77
2022-12-24T07:54:52.093Z,79.08
2022-12-24T07:57:18.811Z,79.30
2022-12-24T07:59:45.348Z,79.30
2022-12-24T08:02:17.885Z,79.47
2022-12-24T08:04:45.008Z,79.41
2022-12-24T08:07:11.542Z,78.89
2022-12-24T08:09:38.572Z,79.05
2022-12-24T08:12:05.218Z,78.99
2022-12-24T08:14:32.208Z,78.82
2022-12-24T08:16:58.774Z,78.83
2022-12-24T08:19:25.393Z,79.04
2022-12-24T08:21:52.047Z,79.05
2022-12-24T08:24:18.764Z,78.86
2022-12-24T08:26:45.318Z,79.37
2022-12-24T08:29:12.047Z,79.40
2022-12-24T08:31:38.709Z,79.47
2022-12-24T08:34:06.109Z,79.67
2022-12-24T08:36:32.996Z,79.39
2022-12-24T08:39:03.557Z,79.37
2022-12-24T08:41:33.345Z,79.16
2022-12-24T08:43:59.872Z,79.15
2022-12-24T08:46:26.584Z,79.15
2022-12-24T08:48:53.194Z,78.88
2022-12-24T08:51:19.828Z,78.87
2022-12-24T08:53:47.061Z,78.20
2022-12-24T08:56:13.888Z,78.44
2022-12-24T08:58:40.539Z,78.31
2022-12-24T09:01:10.456Z,78.05
2022-12-24T09:03:37.222Z,78.15
2022-12-24T09:06:04.312Z,77.88
2022-12-24T09:08:31.429Z,77.98
2022-12-24T09:11:03.416Z,78.31
2022-12-24T09:13:29.959Z,78.16
2022-12-24T09:15:56.463Z,78.33
2022-12-24T09:18:22.995Z,78.23
2022-12-24T09:20:53.857Z,77.91
2022-12-24T09:23:23.540Z,78.15
2022-12-24T09:25:50.216Z,78.07
2022-12-24T09:28:17.360Z,78.14
2022-12-24T09:30:44.186Z,78.58
2022-12-24T09:33:10.777Z,78.35
2022-12-24T09:35:42.814Z,78.19
2022-12-24T09:38:09.399Z,77.85
2022-12-24T09:40:36.881Z,77.88
2022-12-24T09:43:04.989Z,77.25
2022-12-24T09:45:32.161Z,77.25
2022-12-24T09:47:59.969Z,76.70
2022-12-24T09:50:29.316Z,75.09
2022-12-24T09:52:56.045Z,74.91
2022-12-24T09:55:30.085Z,73.92
2022-12-24T09:57:56.789Z,74.08
2022-12-24T10:00:24.915Z,72.99
2022-12-24T10:02:51.613Z,72.95
2022-12-24T10:05:18.757Z,72.58
2022-12-24T10:07:50.201Z,72.76
2022-12-24T10:10:16.762Z,72.02
2022-12-24T10:12:50.058Z,72.66
2022-12-24T10:15:22.886Z,71.42
2022-12-24T10:17:59.384Z,71.72
2022-12-24T10:20:35.169Z,71.40
2022-12-24T10:23:01.649Z,71.30
2022-12-24T10:25:37.893Z,69.92
2022-12-24T10:28:06.113Z,70.46
2022-12-24T10:30:32.671Z,69.63
2022-12-24T10:32:59.267Z,70.94
2022-12-24T10:35:26.914Z,70.35
2022-12-24T10:37:53.571Z,70.16
2022-12-24T10:40:28.768Z,70.55
2022-12-24T10:42:55.311Z,70.74
2022-12-24T10:45:22.434Z,70.17
2022-12-24T10:47:49.943Z,70.23
2022-12-24T10:50:19.611Z,70.83
2022-12-24T10:52:46.376Z,69.90
2022-12-24T10:55:18.935Z,68.91
2022-12-24T10:57:46.443Z,69.92
2022-12-24T11:00:20.215Z,69.55
2022-12-24T11:02:54.817Z,69.71
2022-12-24T11:05:32.084Z,69.84
2022-12-24T11:08:06.820Z,69.99
2022-12-24T11:10:33.858Z,70.40
2022-12-24T11:13:35.612Z,69.99
2022-12-24T11:15:46.983Z,69.69
2022-12-24T11:18:13.920Z,69.75
2022-12-24T11:20:40.546Z,69.56
2022-12-24T11:23:07.151Z,69.84
2022-12-24T11:25:41.835Z,69.83
2022-12-24T11:28:12.688Z,69.72
2022-12-24T11:30:39.240Z,70.42
2022-12-24T11:33:11.603Z,69.84
2022-12-24T11:35:46.930Z,69.48
2022-12-24T11:38:17.455Z,70.22
2022-12-24T11:40:44.496Z,69.49
2022-12-24T11:43:16.073Z,69.38
2022-12-24T11:45:48.350Z,71.20
2022-12-24T11:48:34.029Z,71.77
2022-12-24T11:51:04.288Z,72.34
2022-12-24T11:53:33.686Z,72.93
2022-12-24T11:56:00.330Z,73.61
2022-12-24T11:58:26.900Z,73.68
2022-12-24T12:00:55.928Z,73.80
2022-12-24T12:03:36.856Z,74.18
2022-12-24T12:06:04.170Z,74.26
2022-12-24T12:08:34.386Z,74.09
2022-12-24T12:11:00.937Z,74.34
2022-12-24T12:13:33.175Z,75.32
2022-12-24T12:16:05.188Z,75.88
2022-12-24T12:18:36.026Z,75.66
2022-12-24T12:21:05.083Z,74.94
2022-12-24T12:23:33.960Z,74.59
2022-12-24T12:26:07.177Z,74.70
2022-12-24T12:28:47.806Z,74.37
2022-12-24T12:31:20.424Z,74.70
2022-12-24T12:33:48.091Z,75.06
2022-12-24T12:36:16.060Z,75.04
2022-12-24T12:38:42.617Z,75.91
2022-12-24T12:41:09.091Z,75.08
2022-12-24T12:43:48.719Z,75.17
2022-12-24T12:46:35.900Z,74.82
2022-12-24T12:49:15.720Z,74.94
2022-12-24T12:51:42.146Z,75.33
2022-12-24T12:54:13.550Z,74.92
2022-12-24T12:56:40.173Z,74.10
2022-12-24T12:59:06.647Z,74.29
2022-12-24T13:01:56.521Z,75.02
2022-12-24T13:04:41.966Z,75.23
2022-12-24T13:07:28.565Z,74.93
2022-12-24T13:10:15.101Z,74.79
2022-12-24T13:12:54.435Z,75.21
2022-12-24T13:15:27.701Z,75.35
2022-12-24T13:18:11.051Z,75.79
2022-12-24T13:20:40.641Z,76.25
2022-12-24T13:23:20.485Z,76.30
2022-12-24T13:25:47.959Z,76.65
2022-12-24T13:28:21.054Z,76.58
2022-12-24T13:30:48.230Z,76.51
2022-12-24T13:33:35.109Z,76.51
2022-12-24T13:36:02.447Z,76.73
2022-12-24T13:38:28.913Z,76.86
2022-12-24T13:40:55.895Z,76.85
2022-12-24T13:43:22.402Z,76.60
2022-12-24T13:45:50.098Z,76.96
2022-12-24T13:48:16.584Z,76.90
2022-12-24T13:50:50.383Z,77.15
2022-12-24T13:53:25.980Z,76.58
2022-12-24T13:56:01.968Z,76.27
2022-12-24T13:58:29.003Z,75.80
2022-12-24T14:00:58.534Z,76.26
2022-12-24T14:03:27.120Z,76.44
2022-12-24T14:05:55.298Z,76.32
2022-12-24T14:08:25.698Z,76.38
2022-12-24T14:10:58.374Z,76.47
2022-12-24T14:13:40.017Z,77.56
2022-12-24T14:16:19.164Z,77.98
2022-12-24T14:18:46.980Z,78.22
2022-12-24T14:21:24.443Z,78.09
2022-12-24T14:24:01.690Z,78.09
2022-12-24T14:26:29.288Z,78.17
2022-12-24T14:28:57.047Z,78.72
2022-12-24T14:31:23.718Z,78.58
2022-12-24T14:33:50.365Z,78.47
2022-12-24T14:36:19.493Z,78.62
2022-12-24T14:38:48.690Z,78.57
2022-12-24T14:41:26.864Z,78.46
2022-12-24T14:44:05.601Z,77.99
2022-12-24T14:46:32.091Z,77.70
2022-12-24T14:49:21.927Z,77.57
2022-12-24T14:51:56.043Z,77.38
2022-12-24T14:54:23.589Z,77.24
2022-12-24T14:57:06.853Z,77.31
2022-12-24T14:59:40.725Z,77.23
2022-12-24T15:02:26.113Z,77.16
2022-12-24T15:05:05.124Z,77.22
2022-12-24T15:07:33.299Z,77.27
2022-12-24T15:10:00.427Z,77.31
2022-12-24T15:12:26.963Z,77.27
2022-12-24T15:14:53.541Z,77.68
2022-12-24T15:17:20.075Z,78.15
2022-12-24T15:19:48.001Z,78.27
2022-12-24T15:22:23.021Z,78.05
2022-12-24T15:24:50.116Z,78.84
2022-12-24T15:27:17.955Z,78.83
2022-12-24T15:29:45.492Z,78.86
2022-12-24T15:32:16.091Z,78.47
2022-12-24T15:34:44.212Z,78.79
2022-12-24T15:37:10.888Z,79.01
2022-12-24T15:39:39.378Z,78.70
2022-12-24T15:42:16.055Z,78.44
2022-12-24T15:44:44.391Z,77.98
2022-12-24T15:47:18.438Z,78.39
2022-12-24T15:49:56.124Z,78.08
2022-12-24T15:52:26.224Z,78.24
2022-12-24T15:54:57.665Z,78.32
2022-12-24T15:57:28.745Z,78.32
2022-12-24T15:59:56.059Z,78.45
2022-12-24T16:02:40.238Z,78.41
2022-12-24T16:05:22.641Z,78.52
2022-12-24T16:08:08.897Z,78.92
2022-12-24T16:10:36.380Z,78.63
2022-12-24T16:13:07.544Z,78.61
2022-12-24T16:15:34.151Z,78.72
2022-12-24T16:18:08.362Z,78.62
2022-12-24T16:20:41.036Z,78.45
2022-12-24T16:23:15.111Z,78.31
2022-12-24T16:30:39.293Z,78.75
2022-12-24T16:33:06.715Z,78.54
2022-12-24T16:35:38.426Z,78.57
2022-12-24T16:38:05.011Z,78.22
2022-12-24T16:40:31.684Z,78.27
2022-12-24T16:43:17.192Z,78.70
2022-12-24T16:45:44.295Z,78.61
2022-12-24T16:48:11.281Z,78.64
2022-12-24T16:50:37.829Z,78.61
2022-12-24T16:53:04.347Z,78.54
2022-12-24T16:55:30.926Z,79.07
2022-12-24T16:57:57.466Z,78.75
2022-12-24T17:00:25.713Z,78.69
2022-12-24T17:02:52.447Z,78.70
2022-12-24T17:05:19.109Z,78.60
2022-12-24T17:07:45.622Z,78.71
2022-12-24T17:10:12.917Z,78.47
2022-12-24T17:12:39.454Z,78.65
2022-12-24T17:15:06.238Z,78.73
2022-12-24T17:17:32.910Z,78.67
2022-12-24T17:19:59.492Z,78.69
2022-12-24T17:22:27.776Z,78.89
2022-12-24T17:24:54.743Z,79.02
2022-12-24T17:27:21.464Z,79.02
2022-12-24T17:29:48.024Z,78.64
2022-12-24T17:32:14.554Z,77.88
2022-12-24T17:34:41.035Z,78.07
2022-12-24T17:37:07.616Z,77.83
2022-12-24T17:39:34.164Z,77.79
2022-12-24T17:42:00.754Z,78.02
2022-12-24T17:44:27.268Z,77.73
2022-12-24T17:46:53.901Z,77.79
2022-12-24T17:49:20.477Z,78.19
2022-12-24T17:51:47.000Z,78.09
2022-12-24T17:54:13.634Z,78.31
2022-12-24T17:56:40.236Z,78.04
2022-12-24T17:59:06.759Z,78.25
2022-12-24T18:01:33.439Z,78.12
2022-12-24T18:04:00.382Z,78.26
2022-12-24T18:06:27.204Z,78.53
2022-12-24T18:08:53.879Z,78.45
2022-12-24T18:11:25.016Z,78.48
2022-12-24T18:13:51.649Z,78.70
2022-12-24T18:16:25.398Z,78.78
2022-12-24T18:18:52.156Z,78.67
2022-12-24T18:21:19.628Z,78.70
2022-12-24T18:23:46.749Z,78.80
2022-12-24T18:26:13.677Z,78.61
2022-12-24T18:28:40.372Z,78.72
2022-12-24T18:31:09.348Z,78.47
2022-12-24T18:33:36.064Z,78.63
2022-12-24T18:36:02.850Z,78.66
2022-12-24T18:38:29.438Z,78.67
2022-12-24T18:40:55.943Z,78.95
2022-12-24T18:43:22.859Z,78.80
2022-12-24T18:45:49.388Z,78.52
2022-12-24T18:48:15.879Z,78.50
2022-12-24T18:50:42.577Z,78.35
2022-12-24T18:53:09.176Z,78.66
2022-12-24T18:55:36.241Z,78.59
2022-12-24T18:58:02.876Z,78.76
2022-12-24T19:00:29.609Z,78.64
2022-12-24T19:02:56.265Z,78.68
2022-12-24T19:05:22.849Z,78.59
2022-12-24T19:07:49.403Z,78.54
2022-12-24T19:10:16.758Z,78.48
2022-12-24T19:12:43.300Z,77.75
2022-12-24T19:15:09.986Z,77.29
2022-12-24T19:17:36.565Z,77.18
2022-12-24T19:20:03.186Z,76.64
2022-12-24T19:22:29.778Z,76.49
2022-12-24T19:24:56.277Z,75.94
2022-12-24T19:27:22.811Z,75.63
2022-12-24T19:29:49.375Z,75.62
2022-12-24T19:32:15.909Z,75.48
2022-12-24T19:34:42.639Z,75.48
2022-12-24T19:37:09.165Z,75.59
2022-12-24T19:39:35.699Z,75.67
2022-12-24T19:42:02.277Z,75.56
2022-12-24T19:44:28.798Z,74.80
2022-12-24T19:46:55.323Z,74.62
2022-12-24T19:49:21.839Z,74.87
2022-12-24T19:51:48.322Z,74.68
2022-12-24T19:54:18.856Z,74.94
2022-12-24T19:56:45.765Z,74.96
2022-12-24T19:59:12.278Z,74.84
2022-12-24T20:01:38.965Z,74.98
2022-12-24T20:04:06.553Z,74.81
2022-12-24T20:06:33.823Z,74.35
2022-12-24T20:09:07.600Z,74.57
2022-12-24T20:11:34.166Z,74.73
2022-12-24T20:14:01.355Z,74.95
2022-12-24T20:16:29.448Z,75.34
2022-12-24T20:18:57.013Z,75.74
2022-12-24T20:21:23.791Z,76.00
2022-12-24T20:23:50.708Z,76.68
2022-12-24T20:26:18.173Z,75.77
2022-12-24T20:28:44.852Z,75.91
2022-12-24T20:31:11.771Z,75.68
2022-12-24T20:33:38.697Z,75.35
2022-12-24T20:36:05.753Z,75.10
2022-12-24T20:38:32.313Z,74.61
2022-12-24T20:40:58.978Z,74.14
2022-12-24T20:43:27.337Z,74.00
2022-12-24T20:45:57.343Z,74.52
2022-12-24T20:48:24.063Z,73.99
2022-12-24T20:50:50.941Z,74.11
2022-12-24T20:53:18.166Z,73.65
2022-12-24T20:55:44.745Z,73.43
2022-12-24T20:58:12.448Z,73.95
2022-12-24T21:00:39.123Z,73.95
2022-12-24T21:03:05.739Z,73.79
2022-12-24T21:05:32.277Z,73.96
2022-12-24T21:07:58.785Z,73.83
2022-12-24T21:10:30.712Z,73.79
2022-12-24T21:13:00.496Z,73.51
2022-12-24T21:15:33.525Z,74.10
2022-12-24T21:18:00.163Z,74.07
2022-12-24T21:20:30.910Z,74.48
2022-12-24T21:23:01.149Z,74.92
2022-12-24T21:25:27.967Z,74.80
2022-12-24T21:27:57.515Z,74.89
2022-12-24T21:30:24.431Z,74.17
2022-12-24T21:32:51.030Z,73.93
2022-12-24T21:35:17.585Z,74.19
2022-12-24T21:37:44.095Z,74.38
2022-12-24T21:40:10.863Z,74.35
2022-12-24T21:42:37.424Z,74.39
2022-12-24T21:45:04.690Z,75.02
2022-12-24T21:47:31.235Z,74.89
2022-12-24T21:50:16.131Z,74.91
2022-12-24T21:52:42.741Z,75.26
2022-12-24T21:55:09.633Z,74.95
2022-12-24T21:57:54.852Z,75.38
2022-12-24T22:00:21.622Z,75.39
2022-12-24T22:02:50.284Z,75.45
2022-12-24T22:05:17.039Z,75.93
2022-12-24T22:08:02.289Z,76.54
2022-12-24T22:10:47.245Z,76.35
2022-12-24T22:13:13.782Z,76.90
2022-12-24T22:15:47.395Z,77.20
2022-12-24T22:18:15.884Z,77.92
2022-12-24T22:20:42.767Z,77.97
2022-12-24T22:23:09.305Z,78.39
2022-12-24T22:25:36.661Z,78.70
2022-12-24T22:28:03.452Z,78.99
2022-12-24T22:30:30.008Z,79.02
2022-12-24T22:32:57.323Z,79.01
2022-12-24T22:35:23.908Z,79.50
2022-12-24T22:37:54.565Z,79.57
2022-12-24T22:40:28.062Z,78.99
2022-12-24T22:42:54.815Z,79.40
2022-12-24T22:45:22.566Z,79.30
2022-12-24T22:47:49.659Z,79.54
2022-12-24T22:50:16.411Z,79.29
2022-12-24T22:52:43.348Z,79.12
2022-12-24T22:55:09.894Z,79.21
2022-12-24T22:57:36.606Z,79.39
2022-12-24T23:00:06.215Z,79.63
2022-12-24T23:02:32.922Z,79.62
2022-12-24T23:04:59.611Z,79.26
2022-12-24T23:07:26.341Z,78.93
2022-12-24T23:09:52.866Z,78.58
2022-12-24T23:12:39.347Z,78.87
2022-12-24T23:15:06.145Z,78.89
2022-12-24T23:17:32.647Z,78.80
2022-12-24T23:20:00.744Z,79.05
2022-12-24T23:22:27.464Z,78.98
2022-12-24T23:24:54.157Z,78.79
2022-12-24T23:27:20.663Z,79.41
2022-12-24T23:29:47.435Z,78.78
2022-12-24T23:32:14.074Z,78.96
2022-12-24T23:34:40.570Z,78.97
2022-12-24T23:37:07.813Z,79.42
2022-12-24T23:39:34.299Z,79.23
2022-12-24T23:42:00.807Z,78.83
2022-12-24T23:44:32.248Z,79.13
2022-12-24T23:46:59.442Z,79.00
2022-12-24T23:49:26.738Z,79.55
2022-12-24T23:51:53.264Z,79.10
2022-12-24T23:54:19.797Z,79.01
2022-12-24T23:56:46.338Z,78.94
2022-12-24T23:59:12.868Z,78.93
